sensor_id;sensor_type;location;lat;lon;timestamp;pressure;altitude;pressure_sealevel;temperature;humidity
38812;BME280;24553;51.640;-0.752;2023-02-22T00:00:28;100474.53;;;8.57;100.00
38812;BME280;24553;51.640;-0.752;2023-02-22T00:03:23;100481.28;;;8.60;100.00
38812;BME280;24553;51.640;-0.752;2023-02-22T00:05:57;100488.72;;;8.56;100.00
38812;BME280;24553;51.640;-0.752;2023-02-22T00:08:26;100485.13;;;8.49;100.00
38812;BME280;24553;51.640;-0.752;2023-02-22T00:11:05;100483.88;;;8.45;100.00
38812;BME280;24553;51.640;-0.752;2023-02-22T00:13:33;100490.69;;;8.39;100.00
38812;BME280;24553;51.640;-0.752;2023-02-22T00:15:59;100482.75;;;8.39;100.00
38812;BME280;24553;51.640;-0.752;2023-02-22T00:18:28;100475.13;;;8.36;100.00
38812;BME280;24553;51.640;-0.752;2023-02-22T00:20:57;100467.41;;;8.35;100.00
38812;BME280;24553;51.640;-0.752;2023-02-22T00:23:27;100462.63;;;8.30;100.00
38812;BME280;24553;51.640;-0.752;2023-02-22T00:25:54;100456.53;;;8.29;100.00
38812;BME280;24553;51.640;-0.752;2023-02-22T00:28:20;100465.56;;;8.35;100.00
38812;BME280;24553;51.640;-0.752;2023-02-22T00:30:48;100457.47;;;8.37;100.00
38812;BME280;24553;51.640;-0.752;2023-02-22T00:33:15;100452.00;;;8.38;100.00
38812;BME280;24553;51.640;-0.752;2023-02-22T00:35:41;100463.56;;;8.37;100.00
38812;BME280;24553;51.640;-0.752;2023-02-22T00:38:10;100446.06;;;8.36;100.00
38812;BME280;24553;51.640;-0.752;2023-02-22T00:40:37;100435.19;;;8.31;100.00
38812;BME280;24553;51.640;-0.752;2023-02-22T00:43:04;100439.22;;;8.27;100.00
38812;BME280;24553;51.640;-0.752;2023-02-22T00:45:33;100442.50;;;8.29;100.00
38812;BME280;24553;51.640;-0.752;2023-02-22T00:48:00;100449.25;;;8.32;100.00
38812;BME280;24553;51.640;-0.752;2023-02-22T00:50:27;100437.50;;;8.34;100.00
38812;BME280;24553;51.640;-0.752;2023-02-22T00:52:53;100436.34;;;8.37;100.00
38812;BME280;24553;51.640;-0.752;2023-02-22T00:55:22;100447.06;;;8.35;100.00
38812;BME280;24553;51.640;-0.752;2023-02-22T00:57:48;100452.88;;;8.30;100.00
38812;BME280;24553;51.640;-0.752;2023-02-22T01:00:30;100452.13;;;8.22;100.00
38812;BME280;24553;51.640;-0.752;2023-02-22T01:02:56;100450.59;;;8.27;100.00
38812;BME280;24553;51.640;-0.752;2023-02-22T01:05:28;100444.00;;;8.23;100.00
38812;BME280;24553;51.640;-0.752;2023-02-22T01:07:55;100447.66;;;8.22;100.00
38812;BME280;24553;51.640;-0.752;2023-02-22T01:10:24;100449.00;;;8.18;100.00
38812;BME280;24553;51.640;-0.752;2023-02-22T01:12:50;100449.28;;;8.23;100.00
38812;BME280;24553;51.640;-0.752;2023-02-22T01:15:19;100451.13;;;8.23;100.00
38812;BME280;24553;51.640;-0.752;2023-02-22T01:17:46;100447.97;;;8.27;100.00
38812;BME280;24553;51.640;-0.752;2023-02-22T01:20:12;100448.59;;;8.29;100.00
38812;BME280;24553;51.640;-0.752;2023-02-22T01:22:42;100446.25;;;8.35;100.00
38812;BME280;24553;51.640;-0.752;2023-02-22T01:25:10;100441.13;;;8.33;100.00
38812;BME280;24553;51.640;-0.752;2023-02-22T01:27:36;100441.13;;;8.33;100.00
38812;BME280;24553;51.640;-0.752;2023-02-22T01:30:04;100436.22;;;8.30;100.00
38812;BME280;24553;51.640;-0.752;2023-02-22T01:32:37;100444.13;;;8.30;100.00
38812;BME280;24553;51.640;-0.752;2023-02-22T01:35:06;100437.22;;;8.29;100.00
38812;BME280;24553;51.640;-0.752;2023-02-22T01:37:33;100432.28;;;8.26;100.00
38812;BME280;24553;51.640;-0.752;2023-02-22T01:39:58;100429.63;;;8.26;100.00
38812;BME280;24553;51.640;-0.752;2023-02-22T01:42:24;100427.63;;;8.28;100.00
38812;BME280;24553;51.640;-0.752;2023-02-22T01:47:59;100428.94;;;8.32;100.00
38812;BME280;24553;51.640;-0.752;2023-02-22T01:50:27;100426.66;;;8.29;100.00
38812;BME280;24553;51.640;-0.752;2023-02-22T01:52:53;100428.81;;;8.25;100.00
38812;BME280;24553;51.640;-0.752;2023-02-22T01:55:19;100432.91;;;8.28;100.00
38812;BME280;24553;51.640;-0.752;2023-02-22T01:57:44;100427.00;;;8.26;100.00
38812;BME280;24553;51.640;-0.752;2023-02-22T02:00:13;100422.56;;;8.26;100.00
38812;BME280;24553;51.640;-0.752;2023-02-22T02:02:44;100424.63;;;8.31;100.00
38812;BME280;24553;51.640;-0.752;2023-02-22T02:05:11;100423.94;;;8.37;100.00
38812;BME280;24553;51.640;-0.752;2023-02-22T02:07:38;100417.34;;;8.33;100.00
38812;BME280;24553;51.640;-0.752;2023-02-22T02:10:07;100411.44;;;8.31;100.00
38812;BME280;24553;51.640;-0.752;2023-02-22T02:12:39;100408.97;;;8.29;100.00
38812;BME280;24553;51.640;-0.752;2023-02-22T02:15:28;100398.50;;;8.36;100.00
38812;BME280;24553;51.640;-0.752;2023-02-22T02:17:57;100399.06;;;8.32;100.00
38812;BME280;24553;51.640;-0.752;2023-02-22T02:32:06;100381.53;;;8.54;100.00
38812;BME280;24553;51.640;-0.752;2023-02-22T02:39:51;100371.78;;;8.54;100.00
38812;BME280;24553;51.640;-0.752;2023-02-22T02:42:20;100363.69;;;8.56;100.00
38812;BME280;24553;51.640;-0.752;2023-02-22T02:44:58;100356.03;;;8.61;100.00
38812;BME280;24553;51.640;-0.752;2023-02-22T02:47:29;100361.69;;;8.58;100.00
38812;BME280;24553;51.640;-0.752;2023-02-22T02:50:08;100358.78;;;8.52;100.00
38812;BME280;24553;51.640;-0.752;2023-02-22T02:52:35;100358.03;;;8.59;100.00
38812;BME280;24553;51.640;-0.752;2023-02-22T02:55:03;100357.22;;;8.58;100.00
38812;BME280;24553;51.640;-0.752;2023-02-22T02:57:30;100362.06;;;8.55;100.00
38812;BME280;24553;51.640;-0.752;2023-02-22T02:59:56;100353.13;;;8.56;100.00
38812;BME280;24553;51.640;-0.752;2023-02-22T03:02:42;100361.03;;;8.56;100.00
38812;BME280;24553;51.640;-0.752;2023-02-22T03:08:19;100355.03;;;8.62;100.00
38812;BME280;24553;51.640;-0.752;2023-02-22T03:11:14;100363.16;;;8.60;100.00
38812;BME280;24553;51.640;-0.752;2023-02-22T03:16:37;100356.56;;;8.56;100.00
38812;BME280;24553;51.640;-0.752;2023-02-22T03:19:20;100356.41;;;8.58;100.00
38812;BME280;24553;51.640;-0.752;2023-02-22T03:21:59;100355.13;;;8.54;100.00
38812;BME280;24553;51.640;-0.752;2023-02-22T03:24:28;100353.50;;;8.52;100.00
38812;BME280;24553;51.640;-0.752;2023-02-22T03:27:05;100350.19;;;8.50;100.00
38812;BME280;24553;51.640;-0.752;2023-02-22T03:29:38;100353.50;;;8.52;100.00
38812;BME280;24553;51.640;-0.752;2023-02-22T03:32:09;100353.84;;;8.49;100.00
38812;BME280;24553;51.640;-0.752;2023-02-22T03:34:44;100352.69;;;8.52;100.00
38812;BME280;24553;51.640;-0.752;2023-02-22T03:37:17;100351.50;;;8.55;100.00
38812;BME280;24553;51.640;-0.752;2023-02-22T03:39:44;100350.75;;;8.61;100.00
38812;BME280;24553;51.640;-0.752;2023-02-22T03:42:16;100352.38;;;8.62;100.00
38812;BME280;24553;51.640;-0.752;2023-02-22T03:44:44;100345.91;;;8.64;100.00
38812;BME280;24553;51.640;-0.752;2023-02-22T03:47:15;100342.66;;;8.62;100.00
38812;BME280;24553;51.640;-0.752;2023-02-22T03:49:53;100333.88;;;8.62;100.00
38812;BME280;24553;51.640;-0.752;2023-02-22T03:52:20;100329.63;;;8.61;100.00
38812;BME280;24553;51.640;-0.752;2023-02-22T03:54:48;100322.06;;;8.58;100.00
38812;BME280;24553;51.640;-0.752;2023-02-22T03:57:26;100314.66;;;8.53;100.00
38812;BME280;24553;51.640;-0.752;2023-02-22T03:59:52;100321.03;;;8.59;100.00
38812;BME280;24553;51.640;-0.752;2023-02-22T04:02:18;100316.84;;;8.64;100.00
38812;BME280;24553;51.640;-0.752;2023-02-22T04:04:45;100315.84;;;8.65;100.00
38812;BME280;24553;51.640;-0.752;2023-02-22T04:07:10;100320.34;;;8.65;100.00
38812;BME280;24553;51.640;-0.752;2023-02-22T04:09:35;100310.94;;;8.62;100.00
38812;BME280;24553;51.640;-0.752;2023-02-22T04:12:01;100310.94;;;8.47;100.00
38812;BME280;24553;51.640;-0.752;2023-02-22T04:14:26;100314.56;;;8.46;100.00
38812;BME280;24553;51.640;-0.752;2023-02-22T04:16:52;100309.84;;;8.42;100.00
38812;BME280;24553;51.640;-0.752;2023-02-22T04:19:17;100316.59;;;8.36;100.00
38812;BME280;24553;51.640;-0.752;2023-02-22T04:21:42;100311.31;;;8.36;100.00
38812;BME280;24553;51.640;-0.752;2023-02-22T04:24:08;100314.16;;;8.35;100.00
38812;BME280;24553;51.640;-0.752;2023-02-22T04:26:33;100312.59;;;8.25;100.00
38812;BME280;24553;51.640;-0.752;2023-02-22T04:28:58;100308.13;;;8.26;100.00
38812;BME280;24553;51.640;-0.752;2023-02-22T04:31:24;100307.06;;;8.35;100.00
38812;BME280;24553;51.640;-0.752;2023-02-22T04:33:49;100294.16;;;8.40;100.00
38812;BME280;24553;51.640;-0.752;2023-02-22T04:36:14;100307.59;;;8.30;100.00
38812;BME280;24553;51.640;-0.752;2023-02-22T04:38:41;100302.31;;;8.30;100.00
38812;BME280;24553;51.640;-0.752;2023-02-22T04:41:06;100300.56;;;8.23;100.00
38812;BME280;24553;51.640;-0.752;2023-02-22T04:43:31;100302.22;;;8.24;100.00
38812;BME280;24553;51.640;-0.752;2023-02-22T04:45:57;100298.56;;;8.25;100.00
38812;BME280;24553;51.640;-0.752;2023-02-22T04:48:22;100298.75;;;8.23;100.00
38812;BME280;24553;51.640;-0.752;2023-02-22T04:50:47;100297.75;;;8.24;100.00
38812;BME280;24553;51.640;-0.752;2023-02-22T04:53:13;100296.38;;;8.28;100.00
38812;BME280;24553;51.640;-0.752;2023-02-22T04:55:38;100288.81;;;8.25;100.00
38812;BME280;24553;51.640;-0.752;2023-02-22T04:58:04;100285.09;;;8.20;100.00
38812;BME280;24553;51.640;-0.752;2023-02-22T05:00:29;100277.31;;;8.18;100.00
38812;BME280;24553;51.640;-0.752;2023-02-22T05:02:54;100294.19;;;8.17;100.00
38812;BME280;24553;51.640;-0.752;2023-02-22T05:05:20;100280.44;;;8.22;100.00
38812;BME280;24553;51.640;-0.752;2023-02-22T05:07:47;100286.72;;;8.21;100.00
38812;BME280;24553;51.640;-0.752;2023-02-22T05:10:13;100284.06;;;8.21;100.00
38812;BME280;24553;51.640;-0.752;2023-02-22T05:12:38;100279.00;;;8.19;100.00
38812;BME280;24553;51.640;-0.752;2023-02-22T05:15:05;100276.78;;;8.23;100.00
38812;BME280;24553;51.640;-0.752;2023-02-22T05:17:31;100280.44;;;8.22;100.00
38812;BME280;24553;51.640;-0.752;2023-02-22T05:19:57;100278.16;;;8.19;100.00
38812;BME280;24553;51.640;-0.752;2023-02-22T05:22:22;100272.41;;;8.15;100.00
38812;BME280;24553;51.640;-0.752;2023-02-22T05:24:48;100279.81;;;8.20;100.00
38812;BME280;24553;51.640;-0.752;2023-02-22T05:27:17;100275.88;;;8.16;100.00
38812;BME280;24553;51.640;-0.752;2023-02-22T05:29:42;100274.88;;;8.17;100.00
38812;BME280;24553;51.640;-0.752;2023-02-22T05:32:07;100275.06;;;8.15;100.00
38812;BME280;24553;51.640;-0.752;2023-02-22T05:34:33;100273.22;;;8.16;100.00
38812;BME280;24553;51.640;-0.752;2023-02-22T05:36:58;100267.78;;;8.17;100.00
38812;BME280;24553;51.640;-0.752;2023-02-22T05:39:23;100258.84;;;8.18;100.00
38812;BME280;24553;51.640;-0.752;2023-02-22T05:41:49;100263.41;;;8.09;100.00
38812;BME280;24553;51.640;-0.752;2023-02-22T05:44:14;100267.41;;;8.05;100.00
38812;BME280;24553;51.640;-0.752;2023-02-22T05:46:40;100273.41;;;8.14;100.00
38812;BME280;24553;51.640;-0.752;2023-02-22T05:49:05;100268.78;;;8.16;100.00
38812;BME280;24553;51.640;-0.752;2023-02-22T05:51:31;100269.59;;;8.17;100.00
38812;BME280;24553;51.640;-0.752;2023-02-22T05:53:57;100265.31;;;8.16;100.00
38812;BME280;24553;51.640;-0.752;2023-02-22T05:56:25;100261.84;;;8.15;100.00
38812;BME280;24553;51.640;-0.752;2023-02-22T05:58:51;100254.81;;;8.07;100.00
38812;BME280;24553;51.640;-0.752;2023-02-22T06:01:16;100265.06;;;8.11;100.00
38812;BME280;24553;51.640;-0.752;2023-02-22T06:03:42;100264.31;;;8.17;100.00
38812;BME280;24553;51.640;-0.752;2023-02-22T06:06:07;100271.59;;;8.15;100.00
38812;BME280;24553;51.640;-0.752;2023-02-22T06:08:33;100272.69;;;8.05;100.00
38812;BME280;24553;51.640;-0.752;2023-02-22T06:10:58;100267.41;;;8.05;100.00
38812;BME280;24553;51.640;-0.752;2023-02-22T06:13:23;100260.31;;;8.06;100.00
38812;BME280;24553;51.640;-0.752;2023-02-22T06:15:48;100271.31;;;8.09;100.00
38812;BME280;24553;51.640;-0.752;2023-02-22T06:18:14;100271.31;;;8.09;100.00
38812;BME280;24553;51.640;-0.752;2023-02-22T06:20:39;100270.13;;;8.12;100.00
38812;BME280;24553;51.640;-0.752;2023-02-22T06:23:05;100262.66;;;8.16;100.00
38812;BME280;24553;51.640;-0.752;2023-02-22T06:25:30;100271.44;;;8.16;100.00
38812;BME280;24553;51.640;-0.752;2023-02-22T06:27:57;100268.13;;;8.14;100.00
38812;BME280;24553;51.640;-0.752;2023-02-22T06:30:24;100268.88;;;8.23;100.00
38812;BME280;24553;51.640;-0.752;2023-02-22T06:32:49;100268.06;;;8.22;100.00
38812;BME280;24553;51.640;-0.752;2023-02-22T06:35:15;100265.59;;;8.21;100.00
38812;BME280;24553;51.640;-0.752;2023-02-22T06:37:41;100268.59;;;8.18;100.00
38812;BME280;24553;51.640;-0.752;2023-02-22T06:40:07;100267.41;;;8.20;100.00
38812;BME280;24553;51.640;-0.752;2023-02-22T06:42:32;100272.53;;;8.22;100.00
38812;BME280;24553;51.640;-0.752;2023-02-22T06:44:57;100283.09;;;8.22;100.00
38812;BME280;24553;51.640;-0.752;2023-02-22T06:47:23;100279.06;;;8.26;100.00
38812;BME280;24553;51.640;-0.752;2023-02-22T06:49:53;100286.00;;;8.27;100.00
38812;BME280;24553;51.640;-0.752;2023-02-22T06:52:19;100286.47;;;8.30;100.00
38812;BME280;24553;51.640;-0.752;2023-02-22T06:54:44;100281.38;;;8.29;100.00
38812;BME280;24553;51.640;-0.752;2023-02-22T06:57:09;100282.72;;;8.25;100.00
38812;BME280;24553;51.640;-0.752;2023-02-22T06:59:35;100281.44;;;8.21;100.00
38812;BME280;24553;51.640;-0.752;2023-02-22T07:02:00;100290.81;;;8.23;100.00
38812;BME280;24553;51.640;-0.752;2023-02-22T07:04:27;100279.91;;;8.26;100.00
38812;BME280;24553;51.640;-0.752;2023-02-22T07:06:53;100286.72;;;8.21;100.00
38812;BME280;24553;51.640;-0.752;2023-02-22T07:09:18;100278.44;;;8.24;100.00
38812;BME280;24553;51.640;-0.752;2023-02-22T07:11:44;100275.06;;;8.30;100.00
38812;BME280;24553;51.640;-0.752;2023-02-22T07:14:09;100283.28;;;8.35;100.00
38812;BME280;24553;51.640;-0.752;2023-02-22T07:16:35;100278.63;;;8.37;100.00
38812;BME280;24553;51.640;-0.752;2023-02-22T07:19:00;100280.28;;;8.38;100.00
38812;BME280;24553;51.640;-0.752;2023-02-22T07:21:27;100281.59;;;8.42;100.00
38812;BME280;24553;51.640;-0.752;2023-02-22T07:23:54;100291.84;;;8.37;100.00
38812;BME280;24553;51.640;-0.752;2023-02-22T07:26:21;100278.75;;;8.44;100.00
38812;BME280;24553;51.640;-0.752;2023-02-22T07:28:47;100278.13;;;8.42;100.00
38812;BME280;24553;51.640;-0.752;2023-02-22T07:31:12;100273.28;;;8.45;100.00
38812;BME280;24553;51.640;-0.752;2023-02-22T07:33:38;100272.66;;;8.43;100.00
38812;BME280;24553;51.640;-0.752;2023-02-22T07:36:03;100272.47;;;8.45;100.00
38812;BME280;24553;51.640;-0.752;2023-02-22T07:38:30;100281.97;;;8.39;100.00
38812;BME280;24553;51.640;-0.752;2023-02-22T07:40:56;100282.56;;;8.41;100.00
38812;BME280;24553;51.640;-0.752;2023-02-22T07:43:24;100288.69;;;8.42;100.00
38812;BME280;24553;51.640;-0.752;2023-02-22T07:45:53;100291.78;;;8.45;100.00
38812;BME280;24553;51.640;-0.752;2023-02-22T07:48:22;100283.41;;;8.57;100.00
38812;BME280;24553;51.640;-0.752;2023-02-22T07:50:49;100289.69;;;8.56;100.00
38812;BME280;24553;51.640;-0.752;2023-02-22T07:53:20;100299.34;;;8.63;100.00
38812;BME280;24553;51.640;-0.752;2023-02-22T07:55:46;100301.00;;;8.64;100.00
38812;BME280;24553;51.640;-0.752;2023-02-22T07:58:16;100300.72;;;8.74;100.00
38812;BME280;24553;51.640;-0.752;2023-02-22T08:00:42;100291.88;;;8.67;100.00
38812;BME280;24553;51.640;-0.752;2023-02-22T08:03:10;100307.00;;;8.58;100.00
38812;BME280;24553;51.640;-0.752;2023-02-22T08:05:38;100310.84;;;8.56;100.00
38812;BME280;24553;51.640;-0.752;2023-02-22T08:08:04;100306.19;;;8.58;100.00
38812;BME280;24553;51.640;-0.752;2023-02-22T08:10:31;100312.31;;;8.58;100.00
38812;BME280;24553;51.640;-0.752;2023-02-22T08:12:57;100303.56;;;8.58;100.00
38812;BME280;24553;51.640;-0.752;2023-02-22T08:15:32;100313.75;;;8.61;100.00
38812;BME280;24553;51.640;-0.752;2023-02-22T08:17:59;100304.75;;;8.70;100.00
38812;BME280;24553;51.640;-0.752;2023-02-22T08:20:26;100308.38;;;8.69;100.00
38812;BME280;24553;51.640;-0.752;2023-02-22T08:22:53;100314.31;;;8.71;100.00
38812;BME280;24553;51.640;-0.752;2023-02-22T08:25:20;100314.56;;;8.76;100.00
38812;BME280;24553;51.640;-0.752;2023-02-22T08:27:47;100313.19;;;8.80;100.00
38812;BME280;24553;51.640;-0.752;2023-02-22T08:30:15;100314.47;;;8.84;100.00
38812;BME280;24553;51.640;-0.752;2023-02-22T08:32:41;100317.66;;;8.80;100.00
38812;BME280;24553;51.640;-0.752;2023-02-22T08:35:06;100315.56;;;8.75;100.00
38812;BME280;24553;51.640;-0.752;2023-02-22T08:37:32;100312.31;;;8.73;100.00
38812;BME280;24553;51.640;-0.752;2023-02-22T08:39:57;100316.47;;;8.82;100.00
38812;BME280;24553;51.640;-0.752;2023-02-22T08:42:23;100319.50;;;8.79;100.00
38812;BME280;24553;51.640;-0.752;2023-02-22T08:44:48;100323.50;;;8.75;100.00
38812;BME280;24553;51.640;-0.752;2023-02-22T08:47:13;100320.31;;;8.80;100.00
38812;BME280;24553;51.640;-0.752;2023-02-22T08:49:39;100312.84;;;8.83;100.00
38812;BME280;24553;51.640;-0.752;2023-02-22T08:52:04;100312.09;;;8.89;100.00
38812;BME280;24553;51.640;-0.752;2023-02-22T08:54:30;100313.28;;;9.02;100.00
38812;BME280;24553;51.640;-0.752;2023-02-22T08:56:55;100314.72;;;9.04;100.00
38812;BME280;24553;51.640;-0.752;2023-02-22T08:59:20;100319.22;;;9.04;100.00
38812;BME280;24553;51.640;-0.752;2023-02-22T09:01:46;100314.44;;;9.14;100.00
38812;BME280;24553;51.640;-0.752;2023-02-22T09:04:11;100314.72;;;9.19;100.00
38812;BME280;24553;51.640;-0.752;2023-02-22T09:06:39;100309.56;;;9.32;100.00
38812;BME280;24553;51.640;-0.752;2023-02-22T09:09:06;100307.53;;;9.34;100.00
38812;BME280;24553;51.640;-0.752;2023-02-22T09:11:31;100311.06;;;9.42;100.00
38812;BME280;24553;51.640;-0.752;2023-02-22T09:13:57;100313.53;;;9.43;100.00
38812;BME280;24553;51.640;-0.752;2023-02-22T09:16:22;100315.72;;;9.39;100.00
38812;BME280;24553;51.640;-0.752;2023-02-22T09:18:47;100319.28;;;9.47;100.00
38812;BME280;24553;51.640;-0.752;2023-02-22T09:21:12;100315.44;;;9.49;100.00
38812;BME280;24553;51.640;-0.752;2023-02-22T09:23:38;100306.50;;;9.50;100.00
38812;BME280;24553;51.640;-0.752;2023-02-22T09:26:03;100313.72;;;9.42;100.00
38812;BME280;24553;51.640;-0.752;2023-02-22T09:28:29;100312.34;;;9.46;100.00
38812;BME280;24553;51.640;-0.752;2023-02-22T09:30:54;100315.69;;;9.54;100.00
38812;BME280;24553;51.640;-0.752;2023-02-22T09:33:20;100315.00;;;9.67;100.00
38812;BME280;24553;51.640;-0.752;2023-02-22T09:35:47;100313.81;;;9.70;100.00
38812;BME280;24553;51.640;-0.752;2023-02-22T09:38:16;100305.69;;;9.71;100.00
38812;BME280;24553;51.640;-0.752;2023-02-22T09:40:45;100314.63;;;9.70;100.00
38812;BME280;24553;51.640;-0.752;2023-02-22T09:48:29;100314.19;;;9.67;100.00
38812;BME280;24553;51.640;-0.752;2023-02-22T09:50:58;100308.34;;;9.71;100.00
38812;BME280;24553;51.640;-0.752;2023-02-22T09:53:31;100313.38;;;9.66;100.00
38812;BME280;24553;51.640;-0.752;2023-02-22T09:56:00;100313.81;;;9.70;100.00
38812;BME280;24553;51.640;-0.752;2023-02-22T09:58:34;100313.75;;;9.63;100.00
38812;BME280;24553;51.640;-0.752;2023-02-22T10:01:25;100320.94;;;9.69;100.00
38812;BME280;24553;51.640;-0.752;2023-02-22T10:06:33;100319.63;;;9.58;100.00
38812;BME280;24553;51.640;-0.752;2023-02-22T10:09:01;100319.78;;;9.57;100.00
38812;BME280;24553;51.640;-0.752;2023-02-22T10:11:52;100312.91;;;9.63;100.00
38812;BME280;24553;51.640;-0.752;2023-02-22T10:17:32;100325.09;;;9.78;100.00
38812;BME280;24553;51.640;-0.752;2023-02-22T10:20:24;100316.88;;;9.95;100.00
38812;BME280;24553;51.640;-0.752;2023-02-22T10:23:25;100311.13;;;9.91;100.00
38812;BME280;24553;51.640;-0.752;2023-02-22T10:26:19;100314.25;;;9.95;100.00
38812;BME280;24553;51.640;-0.752;2023-02-22T10:29:00;100323.00;;;9.95;100.00
38812;BME280;24553;51.640;-0.752;2023-02-22T10:31:32;100317.13;;;10.00;100.00
38812;BME280;24553;51.640;-0.752;2023-02-22T10:34:13;100317.28;;;9.92;100.00
38812;BME280;24553;51.640;-0.752;2023-02-22T10:36:41;100319.69;;;9.87;100.00
38812;BME280;24553;51.640;-0.752;2023-02-22T10:41:41;100321.25;;;9.81;100.00
38812;BME280;24553;51.640;-0.752;2023-02-22T10:44:09;100323.78;;;9.89;100.00
38812;BME280;24553;51.640;-0.752;2023-02-22T10:46:34;100326.16;;;9.84;100.00
38812;BME280;24553;51.640;-0.752;2023-02-22T10:49:03;100325.34;;;9.83;100.00
38812;BME280;24553;51.640;-0.752;2023-02-22T10:51:31;100325.22;;;9.92;100.00
38812;BME280;24553;51.640;-0.752;2023-02-22T10:56:27;100324.28;;;9.99;100.00
38812;BME280;24553;51.640;-0.752;2023-02-22T10:58:59;100321.25;;;10.02;100.00
38812;BME280;24553;51.640;-0.752;2023-02-22T11:01:34;100313.72;;;10.06;100.00
38812;BME280;24553;51.640;-0.752;2023-02-22T11:06:45;100318.53;;;9.96;100.00
38812;BME280;24553;51.640;-0.752;2023-02-22T11:09:20;100319.09;;;9.91;100.00
38812;BME280;24553;51.640;-0.752;2023-02-22T11:12:05;100313.47;;;10.01;100.00
38812;BME280;24553;51.640;-0.752;2023-02-22T11:14:31;100316.06;;;9.94;100.00
38812;BME280;24553;51.640;-0.752;2023-02-22T11:16:58;100319.00;;;10.06;100.00
38812;BME280;24553;51.640;-0.752;2023-02-22T11:19:30;100315.41;;;10.14;100.00
38812;BME280;24553;51.640;-0.752;2023-02-22T11:24:31;100327.31;;;10.24;100.00
38812;BME280;24553;51.640;-0.752;2023-02-22T11:27:01;100326.63;;;10.37;100.00
38812;BME280;24553;51.640;-0.752;2023-02-22T11:29:33;100326.91;;;10.49;100.00
38812;BME280;24553;51.640;-0.752;2023-02-22T11:32:03;100330.44;;;10.56;100.00
38812;BME280;24553;51.640;-0.752;2023-02-22T11:34:38;100322.25;;;10.58;100.00
38812;BME280;24553;51.640;-0.752;2023-02-22T11:37:30;100318.16;;;10.55;100.00
38812;BME280;24553;51.640;-0.752;2023-02-22T11:40:11;100329.16;;;10.52;100.00
38812;BME280;24553;51.640;-0.752;2023-02-22T11:42:37;100328.16;;;10.53;100.00
38812;BME280;24553;51.640;-0.752;2023-02-22T11:45:14;100326.28;;;10.47;100.00
38812;BME280;24553;51.640;-0.752;2023-02-22T11:47:47;100332.78;;;10.44;100.00
38812;BME280;24553;51.640;-0.752;2023-02-22T11:50:53;100333.84;;;10.50;100.00
38812;BME280;24553;51.640;-0.752;2023-02-22T11:56:21;100327.38;;;10.59;100.00
38812;BME280;24553;51.640;-0.752;2023-02-22T12:01:46;100329.31;;;10.79;100.00
38812;BME280;24553;51.640;-0.752;2023-02-22T12:04:25;100325.44;;;10.81;100.00
38812;BME280;24553;51.640;-0.752;2023-02-22T12:07:39;100323.75;;;11.15;100.00
38812;BME280;24553;51.640;-0.752;2023-02-22T12:18:33;100311.88;;;11.59;100.00
38812;BME280;24553;51.640;-0.752;2023-02-22T12:21:06;100314.50;;;11.52;100.00
38812;BME280;24553;51.640;-0.752;2023-02-22T12:26:18;100312.78;;;11.25;100.00
38812;BME280;24553;51.640;-0.752;2023-02-22T12:29:01;100306.22;;;11.14;100.00
38812;BME280;24553;51.640;-0.752;2023-02-22T12:31:42;100302.53;;;11.15;100.00
38812;BME280;24553;51.640;-0.752;2023-02-22T12:42:29;100303.88;;;10.91;100.00
38812;BME280;24553;51.640;-0.752;2023-02-22T12:45:24;100312.59;;;10.78;100.00
38812;BME280;24553;51.640;-0.752;2023-02-22T12:50:33;100320.38;;;10.80;100.00
38812;BME280;24553;51.640;-0.752;2023-02-22T12:53:18;100309.72;;;10.73;100.00
38812;BME280;24553;51.640;-0.752;2023-02-22T12:55:46;100316.19;;;10.64;100.00
38812;BME280;24553;51.640;-0.752;2023-02-22T12:58:38;100317.31;;;10.83;100.00
38812;BME280;24553;51.640;-0.752;2023-02-22T13:01:14;100317.13;;;10.91;100.00
38812;BME280;24553;51.640;-0.752;2023-02-22T13:03:42;100321.44;;;10.92;100.00
38812;BME280;24553;51.640;-0.752;2023-02-22T13:09:00;100320.25;;;11.01;100.00
38812;BME280;24553;51.640;-0.752;2023-02-22T13:11:48;100318.41;;;11.02;100.00
38812;BME280;24553;51.640;-0.752;2023-02-22T13:17:11;100332.41;;;10.82;100.00
38812;BME280;24553;51.640;-0.752;2023-02-22T13:22:19;100325.44;;;10.81;100.00
38812;BME280;24553;51.640;-0.752;2023-02-22T13:24:57;100330.50;;;10.69;100.00
38812;BME280;24553;51.640;-0.752;2023-02-22T13:27:29;100326.56;;;10.59;100.00
38812;BME280;24553;51.640;-0.752;2023-02-22T13:29:59;100322.00;;;10.46;100.00
38812;BME280;24553;51.640;-0.752;2023-02-22T13:45:57;100331.63;;;10.88;100.00
38812;BME280;24553;51.640;-0.752;2023-02-22T13:48:38;100332.47;;;10.96;100.00
38812;BME280;24553;51.640;-0.752;2023-02-22T13:54:08;100325.75;;;11.54;100.00
38812;BME280;24553;51.640;-0.752;2023-02-22T13:56:41;100323.28;;;11.66;100.00
38812;BME280;24553;51.640;-0.752;2023-02-22T13:59:21;100325.16;;;11.72;100.00
38812;BME280;24553;51.640;-0.752;2023-02-22T14:01:48;100326.78;;;11.60;100.00
38812;BME280;24553;51.640;-0.752;2023-02-22T14:06:51;100327.38;;;11.69;100.00
38812;BME280;24553;51.640;-0.752;2023-02-22T14:09:55;100338.41;;;11.66;100.00
38812;BME280;24553;51.640;-0.752;2023-02-22T14:17:48;100344.66;;;11.31;100.00
38812;BME280;24553;51.640;-0.752;2023-02-22T14:22:57;100338.22;;;11.06;100.00
38812;BME280;24553;51.640;-0.752;2023-02-22T14:25:42;100340.44;;;10.96;100.00
38812;BME280;24553;51.640;-0.752;2023-02-22T14:28:38;100343.25;;;10.87;100.00
38812;BME280;24553;51.640;-0.752;2023-02-22T14:31:13;100336.44;;;10.72;100.00
38812;BME280;24553;51.640;-0.752;2023-02-22T14:33:53;100340.53;;;10.74;100.00
38812;BME280;24553;51.640;-0.752;2023-02-22T14:36:20;100342.72;;;10.64;100.00
38812;BME280;24553;51.640;-0.752;2023-02-22T14:38:48;100341.88;;;10.63;100.00
38812;BME280;24553;51.640;-0.752;2023-02-22T14:41:22;100339.81;;;10.59;100.00